Time;durP1;ratioP1;P1;durP2;ratioP2;P2;SDS_P1;SDS_P2;PMS_P1;PMS_P2;Temp;Humidity;BMP_temperature;BMP_pressure;BME280_temperature;BME280_humidity;BME280_pressure;Samples;Min_cycle;Max_cycle;Signal;HPM_P1;HPM_P2
2022/07/03 00:01:46;;;;;;;2.50;1.80;;;20.80;99.90;;;;;;4989858;28;20549;-89
2022/07/03 00:04:11;;;;;;;3.00;1.70;;;20.90;99.90;;;;;;4988305;28;20269;-89
2022/07/03 00:06:37;;;;;;;4.43;2.83;;;20.90;99.90;;;;;;4990153;28;20219;-89
2022/07/03 00:09:05;;;;;;;3.67;1.50;;;20.90;99.90;;;;;;4987792;28;20199;-90
2022/07/03 00:11:33;;;;;;;4.03;2.20;;;20.90;99.90;;;;;;4989429;28;20198;-90
2022/07/03 00:13:59;;;;;;;3.20;1.60;;;20.90;99.90;;;;;;4987957;28;20449;-90
2022/07/03 00:16:25;;;;;;;3.47;2.50;;;20.80;99.90;;;;;;4989020;28;20485;-89
2022/07/03 00:18:50;;;;;;;3.00;1.73;;;20.80;99.90;;;;;;4987615;28;20456;-89
2022/07/03 00:21:27;;;;;;;2.97;2.13;;;20.80;99.90;;;;;;4989022;28;20200;-90
2022/07/03 00:24:07;;;;;;;2.57;1.60;;;20.80;99.90;;;;;;4984801;28;20190;-89
2022/07/03 00:26:36;;;;;;;3.00;1.50;;;20.80;99.90;;;;;;4989046;28;20467;-90
2022/07/03 00:29:03;;;;;;;2.53;1.73;;;20.80;99.90;;;;;;4987684;28;20444;-90
2022/07/03 00:31:32;;;;;;;4.07;1.70;;;20.80;99.90;;;;;;4988551;28;20442;-90
2022/07/03 00:34:00;;;;;;;2.67;1.73;;;20.80;99.90;;;;;;4987559;28;20532;-90
2022/07/03 00:36:33;;;;;;;5.73;2.03;;;20.80;99.90;;;;;;4996005;28;20484;-89
2022/07/03 00:38:59;;;;;;;2.10;1.77;;;20.80;99.90;;;;;;5011864;28;20528;-89
2022/07/03 00:41:35;;;;;;;2.83;2.40;;;20.70;99.90;;;;;;4990327;28;20469;-90
2022/07/03 00:44:02;;;;;;;5.60;2.47;;;20.70;99.90;;;;;;5001629;28;20681;-90
2022/07/03 00:46:28;;;;;;;2.43;2.07;;;20.60;99.90;;;;;;4986321;28;20513;-89
2022/07/03 00:48:56;;;;;;;2.90;1.67;;;20.50;99.90;;;;;;4987220;28;20454;-90
2022/07/03 00:51:26;;;;;;;6.87;2.07;;;20.50;99.90;;;;;;4988492;28;20945;-89
2022/07/03 00:53:55;;;;;;;5.40;2.20;;;20.40;99.90;;;;;;4988116;28;20443;-90
2022/07/03 00:56:29;;;;;;;3.73;1.73;;;20.40;99.90;;;;;;4988979;28;20900;-90
2022/07/03 00:59:00;;;;;;;2.90;1.87;;;20.30;99.90;;;;;;4988823;28;20508;-90
2022/07/03 01:01:31;;;;;;;2.13;1.50;;;20.30;99.90;;;;;;4993113;28;20435;-90
2022/07/03 01:04:22;;;;;;;2.10;1.70;;;20.20;99.90;;;;;;4991147;28;20468;-90
2022/07/03 01:07:26;;;;;;;5.00;2.00;;;20.20;99.90;;;;;;4990378;28;20455;-90
2022/07/03 01:09:54;;;;;;;4.07;2.27;;;20.10;99.90;;;;;;4992371;28;20444;-89
2022/07/03 01:12:30;;;;;;;3.40;1.60;;;20.00;99.90;;;;;;4992403;28;20439;-90
2022/07/03 01:15:09;;;;;;;3.70;2.10;;;20.00;99.90;;;;;;4993051;28;20453;-90
2022/07/03 01:17:39;;;;;;;2.57;1.83;;;20.00;99.90;;;;;;4992232;28;21860;-90
2022/07/03 01:20:07;;;;;;;7.70;2.40;;;19.90;99.90;;;;;;4998272;28;20428;-89
2022/07/03 01:22:53;;;;;;;4.20;2.50;;;19.80;99.90;;;;;;4991061;28;20445;-89
2022/07/03 01:25:38;;;;;;;3.50;2.50;;;19.70;99.90;;;;;;4993174;28;22526;-89
2022/07/03 01:28:08;;;;;;;3.23;1.80;;;19.70;99.90;;;;;;4991827;28;20455;-90
2022/07/03 01:30:47;;;;;;;3.10;2.00;;;19.60;99.90;;;;;;4991666;28;20461;-90
2022/07/03 01:33:18;;;;;;;4.70;2.47;;;19.60;99.90;;;;;;4990206;28;20438;-90
2022/07/03 01:36:06;;;;;;;4.43;1.70;;;19.60;99.90;;;;;;4994422;28;21012;-89
2022/07/03 01:38:34;;;;;;;3.73;1.50;;;19.50;99.90;;;;;;4989546;28;20959;-89
2022/07/03 01:41:02;;;;;;;3.40;1.60;;;19.50;99.90;;;;;;4991182;28;20521;-89
2022/07/03 01:43:33;;;;;;;3.50;1.77;;;19.50;99.90;;;;;;4990539;28;20430;-89
2022/07/03 01:46:00;;;;;;;4.30;1.47;;;19.40;99.90;;;;;;4992392;28;20794;-89
2022/07/03 01:48:27;;;;;;;1.60;1.30;;;19.40;99.90;;;;;;4992338;28;20448;-90
2022/07/03 01:50:54;;;;;;;5.63;2.13;;;19.50;99.90;;;;;;4992127;28;20438;-90
2022/07/03 01:53:22;;;;;;;4.30;1.83;;;19.50;99.90;;;;;;4990637;28;20438;-89
2022/07/03 01:55:50;;;;;;;2.80;1.87;;;19.50;99.90;;;;;;4992431;28;20474;-90
2022/07/03 01:58:15;;;;;;;7.03;1.77;;;19.50;99.90;;;;;;4991873;28;20439;-89
2022/07/03 02:01:11;;;;;;;3.53;2.20;;;19.60;99.90;;;;;;4990943;28;20439;-89
2022/07/03 02:03:46;;;;;;;3.10;1.80;;;19.60;99.90;;;;;;4990496;28;21082;-90
2022/07/03 02:06:26;;;;;;;5.00;1.87;;;19.60;99.90;;;;;;4993167;28;20528;-90
2022/07/03 02:09:01;;;;;;;3.83;2.37;;;19.60;99.90;;;;;;4988628;28;20446;-90
2022/07/03 02:11:32;;;;;;;3.33;1.80;;;19.50;99.90;;;;;;4991571;28;20464;-90
2022/07/03 02:14:24;;;;;;;5.63;2.57;;;19.50;99.90;;;;;;5006519;28;20442;-90
2022/07/03 02:16:57;;;;;;;3.13;1.70;;;19.50;99.90;;;;;;4992656;28;20478;-89
2022/07/03 02:19:52;;;;;;;2.63;1.80;;;19.50;99.90;;;;;;4990879;28;20463;-89
2022/07/03 02:22:20;;;;;;;7.97;2.47;;;19.40;99.90;;;;;;4991653;28;20553;-90
2022/07/03 02:24:47;;;;;;;3.23;2.17;;;19.40;99.90;;;;;;5006622;28;20435;-89
2022/07/03 02:27:17;;;;;;;6.23;2.60;;;19.30;99.90;;;;;;4990638;28;20467;-90
2022/07/03 02:30:02;;;;;;;2.67;2.30;;;19.30;99.90;;;;;;4991170;28;20459;-89
2022/07/03 02:32:30;;;;;;;3.83;2.50;;;19.30;99.90;;;;;;4990073;28;20440;-90
2022/07/03 02:35:02;;;;;;;4.80;2.30;;;19.30;99.90;;;;;;4992419;28;20496;-89
2022/07/03 02:37:31;;;;;;;3.63;2.10;;;19.30;99.90;;;;;;4989471;28;20467;-90
2022/07/03 02:40:09;;;;;;;4.97;2.10;;;19.20;99.90;;;;;;4992518;28;20435;-90
2022/07/03 02:42:47;;;;;;;5.00;1.90;;;19.20;99.90;;;;;;4988267;28;20436;-90
2022/07/03 02:45:13;;;;;;;6.00;1.90;;;19.10;99.90;;;;;;4988774;28;20438;-90
2022/07/03 02:48:04;;;;;;;5.23;2.10;;;18.70;99.90;;;;;;4988707;28;20598;-90
2022/07/03 02:50:33;;;;;;;7.27;2.43;;;19.10;99.90;;;;;;4989374;28;20265;-90
2022/07/03 02:53:46;;;;;;;4.53;2.13;;;19.00;99.90;;;;;;4989826;28;20973;-90
2022/07/03 02:56:18;;;;;;;3.60;2.30;;;19.00;99.90;;;;;;4992165;28;20479;-89
2022/07/03 02:59:17;;;;;;;3.17;2.30;;;19.00;99.90;;;;;;4984969;28;20446;-90
2022/07/03 03:02:03;;;;;;;2.63;2.40;;;18.90;99.90;;;;;;4989570;28;20806;-90
2022/07/03 03:04:34;;;;;;;6.37;2.63;;;18.90;99.90;;;;;;4990099;28;20446;-89
2022/07/03 03:07:10;;;;;;;4.57;2.40;;;18.90;99.90;;;;;;4990160;28;20795;-89
2022/07/03 03:09:45;;;;;;;5.40;2.60;;;18.80;99.90;;;;;;5004925;28;20481;-90
2022/07/03 03:12:13;;;;;;;7.60;2.90;;;18.80;99.90;;;;;;4986282;28;20472;-90
2022/07/03 03:14:43;;;;;;;5.13;2.33;;;18.80;99.90;;;;;;4991243;28;20481;-89
2022/07/03 03:17:16;;;;;;;4.63;2.50;;;18.80;99.90;;;;;;5000592;28;20986;-90
2022/07/03 03:19:46;;;;;;;3.63;2.60;;;18.70;99.90;;;;;;4989922;28;20563;-89
2022/07/03 03:22:50;;;;;;;3.80;2.57;;;18.70;99.90;;;;;;4999680;28;21895;-89
2022/07/03 03:25:15;;;;;;;8.63;2.60;;;18.60;99.90;;;;;;4987849;28;20488;-90
2022/07/03 03:27:41;;;;;;;4.47;2.40;;;18.60;99.90;;;;;;4987499;28;20491;-90
2022/07/03 03:30:07;;;;;;;4.73;2.50;;;18.60;99.90;;;;;;4990338;28;20195;-89
2022/07/03 03:32:36;;;;;;;9.07;2.80;;;18.60;99.90;;;;;;4989792;28;20188;-90
2022/07/03 03:35:02;;;;;;;3.57;2.67;;;18.50;99.90;;;;;;4991641;28;20938;-89
2022/07/03 03:37:28;;;;;;;6.27;2.77;;;18.50;99.90;;;;;;4988038;28;20937;-90
2022/07/03 03:39:54;;;;;;;3.77;2.60;;;18.50;99.90;;;;;;4989572;28;20438;-89
2022/07/03 03:42:19;;;;;;;3.80;2.90;;;18.40;99.90;;;;;;4989482;28;20442;-89
2022/07/03 03:44:45;;;;;;;6.00;3.37;;;18.40;99.90;;;;;;4990465;28;20210;-90
2022/07/03 03:47:13;;;;;;;4.47;3.40;;;18.40;99.90;;;;;;4981688;23;1022156;-83
2022/07/03 03:49:38;;;;;;;3.63;2.90;;;18.30;99.90;;;;;;5033345;28;20492;-83
2022/07/03 03:52:05;;;;;;;3.93;3.53;;;18.30;99.90;;;;;;5037669;28;20855;-83
2022/07/03 03:54:31;;;;;;;5.60;3.50;;;18.30;99.90;;;;;;5036116;28;20689;-83
2022/07/03 03:56:56;;;;;;;3.77;3.40;;;18.20;1.00;;;;;;5029228;28;20470;-83
2022/07/03 03:59:22;;;;;;;6.80;3.83;;;18.20;1.00;;;;;;5016794;28;20195;-83
2022/07/03 04:01:47;;;;;;;4.03;3.40;;;18.20;1.00;;;;;;5015497;28;20246;-83
2022/07/03 04:04:17;;;;;;;4.40;3.50;;;18.20;1.00;;;;;;5013186;28;20241;-86
2022/07/03 04:06:43;;;;;;;4.30;3.77;;;18.20;1.00;;;;;;5011881;28;20294;-83
2022/07/03 04:09:09;;;;;;;6.63;3.37;;;18.20;1.00;;;;;;5014259;28;20460;-83
2022/07/03 04:11:34;;;;;;;6.07;3.83;;;18.20;1.00;;;;;;5017092;28;20449;-83
2022/07/03 04:14:00;;;;;;;5.80;3.47;;;18.10;1.00;;;;;;5009561;28;20187;-83
2022/07/03 04:16:25;;;;;;;7.33;4.03;;;18.10;1.00;;;;;;5014013;28;20234;-83
2022/07/03 04:18:51;;;;;;;6.50;4.00;;;18.20;1.00;;;;;;5016803;28;20187;-84
2022/07/03 04:21:16;;;;;;;6.73;3.77;;;18.20;1.00;;;;;;5018048;28;20190;-84
2022/07/03 04:23:42;;;;;;;4.40;4.00;;;18.20;1.00;;;;;;5015895;28;20186;-84
2022/07/03 04:26:08;;;;;;;7.27;4.27;;;18.20;1.00;;;;;;5011136;28;20188;-84
2022/07/03 04:28:33;;;;;;;5.40;4.30;;;18.30;1.00;;;;;;5016356;28;20207;-84
2022/07/03 04:30:59;;;;;;;7.33;4.37;;;18.30;1.00;;;;;;5014904;28;20186;-84
2022/07/03 04:33:25;;;;;;;4.17;3.77;;;18.30;1.00;;;;;;5011619;28;20191;-84
2022/07/03 04:35:50;;;;;;;4.83;4.33;;;18.40;1.00;;;;;;5008159;28;20466;-84
2022/07/03 04:38:16;;;;;;;5.63;4.47;;;18.40;1.00;;;;;;5005212;28;20209;-84
2022/07/03 04:40:42;;;;;;;10.37;4.70;;;18.40;1.00;;;;;;5014404;28;20190;-83
2022/07/03 04:43:07;;;;;;;4.93;4.40;;;18.50;1.00;;;;;;5030960;28;20191;-84
2022/07/03 04:45:33;;;;;;;5.50;4.60;;;18.50;1.00;;;;;;5015845;28;20642;-84
2022/07/03 04:47:58;;;;;;;5.50;4.80;;;18.60;1.00;;;;;;5028058;28;20270;-84
2022/07/03 04:50:24;;;;;;;6.00;5.03;;;18.60;1.00;;;;;;5016872;28;20572;-84
2022/07/03 04:52:52;;;;;;;6.87;4.90;;;18.60;1.00;;;;;;5010510;28;20190;-84
2022/07/03 04:55:17;;;;;;;6.33;5.30;;;18.70;1.00;;;;;;5012406;28;20191;-84
2022/07/03 04:57:43;;;;;;;10.50;5.60;;;18.70;1.00;;;;;;5033630;28;20471;-84
2022/07/03 05:00:09;;;;;;;6.43;5.80;;;18.70;1.00;;;;;;5016321;28;20213;-84
2022/07/03 05:02:35;;;;;;;10.70;5.60;;;18.70;1.00;;;;;;5016316;28;20175;-84
2022/07/03 05:05:00;;;;;;;8.03;5.23;;;18.80;1.00;;;;;;5013883;28;20431;-84
2022/07/03 05:07:26;;;;;;;7.30;6.07;;;18.90;1.00;;;;;;5016102;28;20236;-84
2022/07/03 05:09:52;;;;;;;6.47;5.53;;;18.90;1.00;;;;;;5016213;28;20229;-84
2022/07/03 05:12:17;;;;;;;6.37;5.73;;;19.00;1.00;;;;;;5012664;28;20186;-84
2022/07/03 05:14:43;;;;;;;9.80;5.23;;;19.10;1.00;;;;;;5004698;28;20190;-83
2022/07/03 05:17:09;;;;;;;6.97;5.40;;;19.10;1.00;;;;;;5004467;28;20225;-84
2022/07/03 05:19:37;;;;;;;6.63;6.00;;;19.20;1.00;;;;;;5014508;28;20181;-85
2022/07/03 05:22:03;;;;;;;8.63;6.47;;;19.20;1.00;;;;;;5032408;28;20430;-83
2022/07/03 05:24:29;;;;;;;7.47;6.00;;;19.30;1.00;;;;;;5015589;28;20784;-84
2022/07/03 05:26:54;;;;;;;9.13;6.67;;;19.40;1.00;;;;;;5012898;28;20215;-83
2022/07/03 05:29:20;;;;;;;6.90;6.30;;;19.50;1.00;;;;;;5004239;28;20206;-84
2022/07/03 05:31:45;;;;;;;8.73;6.60;;;19.60;1.00;;;;;;5013376;28;20201;-83
2022/07/03 05:34:11;;;;;;;6.93;6.27;;;19.60;1.00;;;;;;5010480;28;20541;-83
2022/07/03 05:36:36;;;;;;;7.87;6.90;;;19.70;1.00;;;;;;5002005;28;20303;-84
2022/07/03 05:41:46;;;;;;;7.37;6.70;;;19.80;1.00;;;;;;5010736;28;20192;-85
2022/07/03 05:44:12;;;;;;;9.20;6.00;;;20.00;1.00;;;;;;5014553;28;20921;-84
2022/07/03 05:46:37;;;;;;;7.90;6.20;;;20.10;99.90;;;;;;5014861;28;20295;-85
2022/07/03 05:49:03;;;;;;;7.90;6.80;;;20.10;99.90;;;;;;5015419;28;20189;-85
2022/07/03 05:51:28;;;;;;;6.60;6.03;;;20.20;99.90;;;;;;5016071;28;20753;-85
2022/07/03 05:53:54;;;;;;;6.73;5.63;;;20.20;99.90;;;;;;5014039;28;20305;-84
2022/07/03 05:56:19;;;;;;;6.90;6.13;;;20.30;99.90;;;;;;5013795;28;20270;-85
2022/07/03 05:58:45;;;;;;;6.50;6.00;;;20.30;99.90;;;;;;5011160;28;20197;-85
2022/07/03 06:01:10;;;;;;;6.77;6.10;;;20.40;99.90;;;;;;5012960;28;20196;-85
2022/07/03 06:03:36;;;;;;;7.83;7.00;;;20.40;99.90;;;;;;5014900;28;20196;-85
2022/07/03 06:06:01;;;;;;;7.40;6.67;;;20.50;99.90;;;;;;5013370;28;21265;-85
2022/07/03 06:08:27;;;;;;;6.77;6.17;;;20.60;99.90;;;;;;5007294;28;20603;-85
2022/07/03 06:10:53;;;;;;;7.40;5.73;;;20.90;99.90;;;;;;5013807;28;20209;-85
2022/07/03 06:13:19;;;;;;;8.47;5.60;;;21.30;99.90;;;;;;5015737;28;20200;-85
2022/07/03 06:15:44;;;;;;;5.60;5.00;;;22.00;99.90;;;;;;5028345;28;20655;-85
2022/07/03 06:18:10;;;;;;;5.23;4.70;;;23.90;99.90;;;;;;5010750;28;20519;-86
2022/07/03 06:20:35;;;;;;;10.30;4.27;;;27.90;99.90;;;;;;5014228;28;20193;-86
2022/07/03 06:23:03;;;;;;;8.00;3.13;;;32.00;99.90;;;;;;5011243;28;20191;-84
2022/07/03 06:25:29;;;;;;;3.43;3.13;;;35.30;99.90;;;;;;5013506;28;20195;-84
2022/07/03 06:27:55;;;;;;;6.57;2.53;;;38.30;99.90;;;;;;5005520;28;20552;-84
2022/07/03 06:30:20;;;;;;;5.83;2.40;;;40.00;99.90;;;;;;5012939;28;20538;-84
2022/07/03 06:32:46;;;;;;;5.20;2.47;;;39.20;99.90;;;;;;5012059;28;20662;-84
2022/07/03 06:35:11;;;;;;;3.47;2.30;;;41.40;99.90;;;;;;5014197;28;20232;-84
2022/07/03 06:37:37;;;;;;;4.20;2.00;;;43.40;99.90;;;;;;5012308;28;20574;-85
2022/07/03 06:40:03;;;;;;;5.37;2.10;;;45.00;99.90;;;;;;5010256;28;20199;-85
2022/07/03 06:42:29;;;;;;;3.23;2.03;;;46.40;99.90;;;;;;5012938;28;20332;-85
2022/07/03 06:44:54;;;;;;;3.00;2.07;;;47.30;99.90;;;;;;5012172;28;20437;-85
2022/07/03 06:47:20;;;;;;;3.20;2.03;;;47.90;99.90;;;;;;5013235;28;20214;-85
2022/07/03 06:49:45;;;;;;;4.60;1.90;;;48.90;99.90;;;;;;5010321;28;20171;-85
2022/07/03 06:52:11;;;;;;;2.63;1.60;;;49.80;98.30;;;;;;5011101;28;20221;-85
2022/07/03 06:54:43;;;;;;;4.17;1.70;;;50.40;99.90;;;;;;5022992;28;20567;-85
2022/07/03 06:57:12;;;;;;;3.13;1.50;;;50.50;88.20;;;;;;5012449;28;20268;-85
2022/07/03 06:59:38;;;;;;;4.20;1.63;;;48.80;73.50;;;;;;5012384;28;20528;-85
2022/07/03 07:02:04;;;;;;;3.43;1.60;;;49.50;70.40;;;;;;5011856;28;20933;-86
2022/07/03 07:04:29;;;;;;;2.50;1.40;;;51.40;70.40;;;;;;5012016;28;20178;-85
2022/07/03 07:06:55;;;;;;;4.97;1.90;;;53.30;69.10;;;;;;5012660;28;20224;-85
2022/07/03 07:09:20;;;;;;;3.03;1.70;;;54.80;66.70;;;;;;5010034;28;20237;-85
2022/07/03 07:11:46;;;;;;;4.25;1.63;;;55.90;62.90;;;;;;5010806;28;20620;-86
2022/07/03 07:14:12;;;;;;;3.35;1.70;;;56.70;59.30;;;;;;5011427;28;20183;-86
2022/07/03 07:16:37;;;;;;;1.40;1.10;;;57.60;56.50;;;;;;5011819;28;20249;-85
2022/07/03 07:19:03;;;;;;;2.25;1.70;;;58.30;54.90;;;;;;5010652;28;20182;-86
2022/07/03 07:21:28;;;;;;;2.17;1.73;;;59.20;53.60;;;;;;5011281;28;20197;-86
2022/07/03 07:23:54;;;;;;;3.40;1.83;;;59.50;51.60;;;;;;5003126;28;20185;-86
2022/07/03 07:26:20;;;;;;;5.00;1.90;;;60.00;49.60;;;;;;5012420;28;20189;-87
2022/07/03 07:28:46;;;;;;;2.13;1.77;;;60.40;47.70;;;;;;5010746;28;20174;-86
2022/07/03 07:31:12;;;;;;;4.60;2.30;;;60.40;45.00;;;;;;5013132;28;20174;-86
2022/07/03 07:33:37;;;;;;;2.95;2.00;;;60.40;43.10;;;;;;5009077;28;20178;-86
2022/07/03 07:36:03;;;;;;;5.07;2.30;;;60.40;41.60;;;;;;5029705;28;20221;-87
2022/07/03 07:38:29;;;;;;;5.00;2.30;;;60.20;39.60;;;;;;5011343;28;20283;-87
2022/07/03 07:40:54;;;;;;;3.38;2.47;;;60.30;38.00;;;;;;5011220;28;20186;-87
2022/07/03 07:43:20;;;;;;;4.13;2.38;;;60.00;35.20;;;;;;5013006;28;20178;-86
2022/07/03 07:45:46;;;;;;;6.50;2.50;;;60.00;34.30;;;;;;5012574;28;20194;-86
2022/07/03 07:48:13;;;;;;;3.53;2.35;;;60.10;33.40;;;;;;5006631;28;20285;-87
2022/07/03 07:50:41;;;;;;;7.97;2.70;;;60.00;32.30;;;;;;5004852;28;20185;-86
2022/07/03 07:53:07;;;;;;;7.03;3.17;;;59.70;31.20;;;;;;5012416;28;20178;-86
2022/07/03 07:55:32;;;;;;;4.53;2.22;;;59.70;29.90;;;;;;5012717;28;20209;-87
2022/07/03 07:57:58;;;;;;;2.38;1.85;;;59.70;29.50;;;;;;5011656;28;20202;-87
2022/07/03 08:00:23;;;;;;;3.38;2.10;;;59.40;27.50;;;;;;5012977;28;20190;-87
2022/07/03 08:05:36;;;;;;;4.72;2.47;;;59.30;26.40;;;;;;5007674;28;20261;-86
2022/07/03 08:08:15;;;;;;;3.33;2.38;;;59.30;37.00;;;;;;5011402;28;20202;-87
2022/07/03 08:10:45;;;;;;;3.28;2.03;;;59.10;25.80;;;;;;5012563;28;20676;-86
2022/07/03 08:13:11;;;;;;;3.13;2.30;;;58.90;24.90;;;;;;5010667;28;20272;-87
2022/07/03 08:15:41;;;;;;;6.63;2.30;;;58.90;24.70;;;;;;5012441;28;20581;-87
2022/07/03 08:18:07;;;;;;;4.22;2.65;;;59.10;24.90;;;;;;5005895;28;20280;-87
2022/07/03 08:20:34;;;;;;;3.22;2.58;;;58.70;23.90;;;;;;5012520;28;20329;-87
2022/07/03 08:23:00;;;;;;;2.55;2.03;;;58.50;23.10;;;;;;5011679;28;20639;-87
2022/07/03 08:25:26;;;;;;;2.45;2.13;;;58.50;22.80;;;;;;5011519;28;20198;-87
2022/07/03 08:27:52;;;;;;;2.85;2.33;;;58.60;22.80;;;;;;5011471;28;20207;-87
2022/07/03 08:30:17;;;;;;;2.33;2.10;;;58.90;23.50;;;;;;5011727;28;20537;-87
2022/07/03 08:32:48;;;;;;;3.75;2.35;;;59.00;22.90;;;;;;5009733;28;20214;-89
2022/07/03 08:35:14;;;;;;;2.72;1.90;;;59.10;22.50;;;;;;5011238;28;20178;-87
2022/07/03 08:37:43;;;;;;;4.45;2.13;;;59.00;22.20;;;;;;5010930;28;20214;-88
2022/07/03 08:40:13;;;;;;;3.83;1.95;;;58.90;21.50;;;;;;5000465;28;20174;-87
2022/07/03 08:42:44;;;;;;;5.70;2.35;;;58.80;20.70;;;;;;5007954;28;20285;-87
2022/07/03 08:45:15;;;;;;;3.90;2.17;;;58.40;20.30;;;;;;5006741;28;20563;-87
2022/07/03 08:47:42;;;;;;;3.95;2.53;;;57.60;19.20;;;;;;5010421;28;20217;-88
2022/07/03 08:50:09;;;;;;;2.08;1.88;;;56.50;17.50;;;;;;5003530;28;20170;-86
2022/07/03 08:52:35;;;;;;;2.58;1.60;;;56.10;15.70;;;;;;5020780;28;20228;-85
2022/07/03 08:55:03;;;;;;;3.35;1.88;;;55.60;14.70;;;;;;5002381;28;20186;-86
2022/07/03 08:57:32;;;;;;;2.03;1.40;;;55.20;14.20;;;;;;5006055;28;20632;-84
2022/07/03 09:00:00;;;;;;;2.60;1.77;;;54.40;12.90;;;;;;5006494;28;20190;-84
2022/07/03 09:02:26;;;;;;;2.80;1.90;;;54.00;12.10;;;;;;5008863;28;20182;-84
2022/07/03 09:04:51;;;;;;;2.93;1.77;;;53.70;12.10;;;;;;5009592;28;20537;-84
2022/07/03 09:07:19;;;;;;;3.10;1.87;;;53.50;11.70;;;;;;5007590;28;20217;-84
2022/07/03 09:09:45;;;;;;;2.33;1.40;;;53.40;11.90;;;;;;5009200;28;20186;-84
2022/07/03 09:12:12;;;;;;;3.27;2.10;;;53.30;13.20;;;;;;5011421;28;20445;-84
2022/07/03 09:14:38;;;;;;;3.47;1.53;;;53.20;12.10;;;;;;5010790;28;20524;-84
2022/07/03 09:17:06;;;;;;;3.40;1.60;;;53.10;12.00;;;;;;5005004;28;20547;-84
2022/07/03 09:19:48;;;;;;;4.10;1.57;;;53.10;11.70;;;;;;5002242;28;20182;-84
2022/07/03 09:22:21;;;;;;;2.53;1.80;;;52.80;11.90;;;;;;5011139;28;20955;-84
2022/07/03 09:24:51;;;;;;;4.57;1.53;;;52.90;12.40;;;;;;5012323;28;20437;-84
2022/07/03 09:27:19;;;;;;;3.10;2.33;;;53.00;13.30;;;;;;5022819;28;20468;-84
2022/07/03 09:29:59;;;;;;;4.87;2.10;;;52.90;14.10;;;;;;5012136;28;20429;-84
2022/07/03 09:32:25;;;;;;;5.17;2.00;;;52.80;13.50;;;;;;5014397;28;20437;-84
2022/07/03 09:35:11;;;;;;;2.50;1.70;;;52.50;12.60;;;;;;5030074;28;20448;-83
2022/07/03 09:37:37;;;;;;;4.10;1.60;;;52.40;12.40;;;;;;5014723;28;20509;-83
2022/07/03 09:40:03;;;;;;;4.40;1.80;;;52.20;12.30;;;;;;5015071;28;20522;-84
2022/07/03 09:42:29;;;;;;;2.53;1.70;;;52.10;12.10;;;;;;5031695;28;20274;-83
2022/07/03 09:44:54;;;;;;;3.23;1.70;;;52.00;11.20;;;;;;5015331;28;20468;-83
2022/07/03 09:47:23;;;;;;;2.80;2.00;;;52.10;10.90;;;;;;5014497;28;20276;-83
2022/07/03 09:49:54;;;;;;;2.47;1.70;;;52.00;11.70;;;;;;5015757;28;20197;-86
2022/07/03 09:52:35;;;;;;;3.83;2.13;;;51.10;9.70;;;;;;5029377;28;20819;-84
2022/07/03 09:55:11;;;;;;;4.47;1.60;;;51.10;9.20;;;;;;5014973;28;20529;-83
2022/07/03 09:57:43;;;;;;;2.33;1.77;;;51.00;10.10;;;;;;5015188;28;20526;-86
2022/07/03 10:00:25;;;;;;;4.67;2.03;;;50.60;9.30;;;;;;5013075;28;20455;-83
2022/07/03 10:03:06;;;;;;;2.87;2.00;;;50.50;8.80;;;;;;5017822;28;20437;-82
2022/07/03 10:05:36;;;;;;;2.83;1.70;;;50.20;9.10;;;;;;5017656;28;20437;-83
2022/07/03 10:08:05;;;;;;;4.10;1.70;;;49.90;8.70;;;;;;5015516;28;20461;-84
2022/07/03 10:10:36;;;;;;;3.77;2.27;;;49.60;8.30;;;;;;5014170;28;20441;-83
2022/07/03 10:13:03;;;;;;;3.37;2.40;;;49.30;8.40;;;;;;5011502;28;20465;-83
2022/07/03 10:15:31;;;;;;;2.90;1.93;;;48.90;8.00;;;;;;5014804;28;20434;-82
2022/07/03 10:17:58;;;;;;;3.67;1.43;;;48.60;7.90;;;;;;5014472;28;20461;-83
2022/07/03 10:20:43;;;;;;;2.07;1.20;;;48.50;7.90;;;;;;5014150;28;20481;-84
2022/07/03 10:23:09;;;;;;;5.40;1.83;;;48.40;7.80;;;;;;5016283;28;20476;-84
2022/07/03 10:25:36;;;;;;;2.13;1.30;;;48.40;7.80;;;;;;5016978;28;20448;-83
2022/07/03 10:28:02;;;;;;;3.10;1.63;;;48.10;8.30;;;;;;5016455;28;20452;-83
2022/07/03 10:30:28;;;;;;;4.17;2.10;;;47.90;8.10;;;;;;5015443;28;20437;-84
2022/07/03 10:32:55;;;;;;;2.40;1.57;;;47.80;7.90;;;;;;5016598;28;21074;-83
2022/07/03 10:35:37;;;;;;;3.13;1.83;;;47.10;7.20;;;;;;5016699;28;20465;-83
2022/07/03 10:38:02;;;;;;;4.30;1.40;;;47.70;8.50;;;;;;5014108;28;20557;-83
2022/07/03 10:46:23;;;;;;;1.63;1.30;;;47.80;9.20;;;;;;5016129;28;20436;-83
2022/07/03 10:49:11;;;;;;;4.47;1.70;;;46.70;7.50;;;;;;5015198;28;20476;-83
2022/07/03 10:51:56;;;;;;;2.23;1.67;;;46.80;7.70;;;;;;5018226;28;20777;-83
2022/07/03 10:54:24;;;;;;;3.03;1.30;;;46.70;7.40;;;;;;5015808;28;20469;-83
2022/07/03 10:57:01;;;;;;;3.73;1.40;;;46.60;7.90;;;;;;5017310;28;20465;-83
2022/07/03 10:59:36;;;;;;;4.37;1.50;;;46.10;7.40;;;;;;5012488;28;20516;-84
2022/07/03 11:02:17;;;;;;;2.70;1.30;;;45.90;7.30;;;;;;5013864;28;20421;-83
2022/07/03 11:07:24;;;;;;;2.53;1.50;;;45.70;7.60;;;;;;5019434;28;20456;-84
2022/07/03 11:10:10;;;;;;;2.70;1.67;;;45.20;7.60;;;;;;5019330;28;20434;-83
2022/07/03 11:12:57;;;;;;;4.80;1.10;;;44.80;6.60;;;;;;5006141;28;20430;-84
2022/07/03 11:15:29;;;;;;;7.30;1.20;;;44.70;7.80;;;;;;5018034;28;20433;-83
2022/07/03 11:18:17;;;;;;;4.00;1.03;;;44.90;8.30;;;;;;5031499;28;20524;-84
2022/07/03 11:20:42;;;;;;;2.03;1.10;;;45.40;9.70;;;;;;5019559;28;20413;-84
2022/07/03 11:23:19;;;;;;;2.97;1.17;;;45.50;10.10;;;;;;5017942;28;20446;-83
2022/07/03 11:25:50;;;;;;;1.87;1.00;;;45.80;10.00;;;;;;5009307;28;20189;-82
2022/07/03 11:28:34;;;;;;;2.70;1.10;;;45.30;9.70;;;;;;5017332;28;20519;-82
2022/07/03 11:31:13;;;;;;;2.90;1.30;;;44.80;9.10;;;;;;5016304;28;20544;-83
2022/07/03 11:33:42;;;;;;;2.37;1.30;;;44.70;18.20;;;;;;5016745;28;20475;-82
2022/07/03 11:36:14;;;;;;;2.97;1.30;;;44.30;7.80;;;;;;5013690;28;20469;-84
2022/07/03 11:38:40;;;;;;;3.33;1.30;;;44.20;7.60;;;;;;5016758;28;20446;-82
2022/07/03 11:41:08;;;;;;;1.93;1.10;;;44.00;7.80;;;;;;5017192;28;20449;-81
2022/07/03 11:43:34;;;;;;;3.00;1.00;;;43.80;17.20;;;;;;5017840;28;20934;-83
2022/07/03 11:46:00;;;;;;;1.80;1.00;;;43.80;8.40;;;;;;5013523;28;20524;-82
2022/07/03 11:48:27;;;;;;;2.33;1.20;;;43.70;8.00;;;;;;5017064;28;20222;-83
2022/07/03 11:51:02;;;;;;;2.40;1.07;;;43.80;8.50;;;;;;5018536;28;20422;-84
2022/07/03 11:53:36;;;;;;;2.53;1.00;;;43.40;8.20;;;;;;5011135;28;20437;-82
2022/07/03 11:56:07;;;;;;;4.70;1.40;;;43.50;8.70;;;;;;5016460;28;20492;-83
2022/07/03 11:59:05;;;;;;;2.60;1.30;;;43.20;9.00;;;;;;5013627;28;20456;-83
2022/07/03 12:01:33;;;;;;;3.87;1.33;;;42.60;7.90;;;;;;5017084;28;20433;-83
2022/07/03 12:04:09;;;;;;;4.13;1.30;;;42.10;8.10;;;;;;5016157;28;20418;-82
2022/07/03 12:06:37;;;;;;;2.47;1.00;;;41.80;8.90;;;;;;5030995;28;20433;-82
2022/07/03 12:09:11;;;;;;;1.47;0.97;;;41.20;7.60;;;;;;5036546;28;20436;-83
2022/07/03 12:11:37;;;;;;;2.50;1.20;;;41.30;8.40;;;;;;5018109;28;20414;-82
2022/07/03 12:14:02;;;;;;;3.40;1.10;;;40.50;7.70;;;;;;5010389;28;20456;-82
2022/07/03 12:16:33;;;;;;;1.50;0.90;;;40.70;8.60;;;;;;5019608;28;20222;-83
2022/07/03 12:19:05;;;;;;;3.70;1.23;;;40.50;8.90;;;;;;5016030;28;20191;-83
2022/07/03 12:21:38;;;;;;;5.33;1.10;;;39.80;8.00;;;;;;5004247;28;20477;-83
2022/07/03 12:24:14;;;;;;;3.23;0.90;;;39.80;8.80;;;;;;5004212;28;20426;-83
2022/07/03 12:26:40;;;;;;;3.67;1.17;;;39.50;8.20;;;;;;5015539;28;20484;-82
2022/07/03 12:29:13;;;;;;;2.70;1.23;;;38.40;7.40;;;;;;5018162;28;20422;-81
2022/07/03 12:31:46;;;;;;;2.60;1.00;;;38.30;8.50;;;;;;5017058;28;20191;-81
2022/07/03 12:34:14;;;;;;;1.73;0.80;;;38.30;9.00;;;;;;5012622;28;20438;-83
2022/07/03 12:36:40;;;;;;;1.17;0.80;;;38.00;9.60;;;;;;5018311;28;20477;-83
2022/07/03 12:39:06;;;;;;;2.53;0.90;;;37.90;10.00;;;;;;5018341;28;20418;-82
2022/07/03 12:41:32;;;;;;;1.80;0.90;;;38.10;11.50;;;;;;5019766;28;20433;-85
2022/07/03 12:43:59;;;;;;;1.80;0.90;;;38.00;12.20;;;;;;5018376;28;20214;-83
2022/07/03 12:46:34;;;;;;;4.50;1.00;;;37.40;11.00;;;;;;5017530;28;20852;-83
2022/07/03 12:49:07;;;;;;;1.97;0.97;;;37.10;10.90;;;;;;5017657;28;20503;-83
2022/07/03 12:52:02;;;;;;;1.50;1.23;;;37.10;11.60;;;;;;5017507;28;20424;-83
2022/07/03 12:54:34;;;;;;;3.43;1.03;;;36.90;12.20;;;;;;5010150;28;20438;-82
2022/07/03 13:00:17;;;;;;;3.87;0.90;;;36.80;12.80;;;;;;5005005;28;20848;-83
2022/07/03 13:02:45;;;;;;;3.00;0.80;;;36.70;13.20;;;;;;5015012;28;20417;-84
2022/07/03 13:05:22;;;;;;;5.37;0.70;;;36.20;13.20;;;;;;5015736;28;20487;-83
2022/07/03 13:07:55;;;;;;;3.93;0.90;;;35.90;13.50;;;;;;5012135;28;20460;-84
2022/07/03 13:10:22;;;;;;;1.43;0.80;;;35.70;14.10;;;;;;5012637;28;20461;-83
2022/07/03 13:12:56;;;;;;;1.57;1.00;;;35.70;14.50;;;;;;5012419;28;20638;-84
2022/07/03 13:15:29;;;;;;;3.00;0.90;;;35.70;15.80;;;;;;5012892;28;20541;-84
2022/07/03 13:17:54;;;;;;;2.17;0.90;;;35.50;16.40;;;;;;5008094;28;20477;-85
2022/07/03 13:20:27;;;;;;;1.60;0.80;;;35.50;16.80;;;;;;5014293;28;20930;-83
2022/07/03 13:22:55;;;;;;;1.60;1.00;;;35.50;17.10;;;;;;5013997;28;20651;-83